Time;durP1;ratioP1;P1;durP2;ratioP2;P2;SDS_P1;SDS_P2;PMS_P1;PMS_P2;Temp;Humidity;BMP_temperature;BMP_pressure;BME280_temperature;BME280_humidity;BME280_pressure;Samples;Min_cycle;Max_cycle;Signal;HPM_P1;HPM_P2
2022/06/19 00:00:10;;;;;;;;;;;;;;;;;;5091044;28;20489;-67
2022/06/19 00:02:36;;;;;;;;;;;;;;;;;;5092107;28;20348;-67
2022/06/19 00:05:02;;;;;;;;;;;;;;;;;;5092742;28;19950;-67
2022/06/19 00:07:28;;;;;;;;;;;;;;;;;;5092615;28;20373;-67
2022/06/19 00:09:54;;;;;;;;;;;;;;;;;;5090537;28;19920;-67
2022/06/19 00:12:19;;;;;;;;;;;;;;;;;;5091396;28;19921;-67
2022/06/19 00:14:45;;;;;;;;;;;;;;;;;;5092407;28;20365;-67
2022/06/19 00:17:13;;;;;;;;;;;;;;;;;;5090226;28;19924;-67
2022/06/19 00:19:39;;;;;;;;;;;;;;;;;;5092571;28;20347;-67
2022/06/19 00:22:05;;;;;;;;;;;;;;;;;;5092142;28;19967;-67
2022/06/19 00:24:31;;;;;;;;;;;;;;;;;;5091403;28;19966;-67
2022/06/19 00:26:57;;;;;;;;;;;;;;;;;;5076153;28;20035;-67
2022/06/19 00:29:23;;;;;;;;;;;;;;;;;;5071852;28;20287;-67
2022/06/19 00:31:49;;;;;;;;;;;;;;;;;;5071211;28;20268;-67
2022/06/19 00:34:15;;;;;;;;;;;;;;;;;;5072048;28;19920;-67
2022/06/19 00:36:42;;;;;;;;;;;;;;;;;;5070394;28;19920;-67
2022/06/19 00:39:08;;;;;;;;;;;;;;;;;;5071326;28;19927;-67
2022/06/19 00:41:34;;;;;;;;;;;;;;;;;;5071844;28;19921;-67
2022/06/19 00:44:00;;;;;;;;;;;;;;;;;;5071414;28;19924;-67
2022/06/19 00:46:26;;;;;;;;;;;;;;;;;;5069814;28;20003;-67
2022/06/19 00:48:52;;;;;;;;;;;;;;;;;;5071548;28;19928;-67
2022/06/19 00:51:18;;;;;;;;;;;;;;;;;;5070307;28;19924;-67
2022/06/19 00:53:45;;;;;;;;;;;;;;;;;;5071177;28;20011;-67
2022/06/19 00:56:11;;;;;;;;;;;;;;;;;;5073304;28;19921;-67
2022/06/19 00:58:37;;;;;;;;;;;;;;;;;;5074359;28;20248;-67
2022/06/19 01:01:03;;;;;;;;;;;;;;;;;;5073616;28;19921;-67
2022/06/19 01:03:29;;;;;;;;;;;;;;;;;;5075606;28;19989;-67
2022/06/19 01:05:54;;;;;;;;;;;;;;;;;;5074227;28;19971;-67
2022/06/19 01:08:20;;;;;;;;;;;;;;;;;;5073407;28;20421;-67
2022/06/19 01:10:46;;;;;;;;;;;;;;;;;;5074187;28;20363;-67
2022/06/19 01:13:12;;;;;;;;;;;;;;;;;;5074104;28;19998;-67
2022/06/19 01:15:38;;;;;;;;;;;;;;;;;;5075037;28;19967;-67
2022/06/19 01:18:04;;;;;;;;;;;;;;;;;;5075610;28;19990;-67
2022/06/19 01:20:30;;;;;;;;;;;;;;;;;;5075322;28;19928;-67
2022/06/19 01:22:56;;;;;;;;;;;;;;;;;;5074710;28;20009;-67
2022/06/19 01:25:22;;;;;;;;;;;;;;;;;;5077848;28;20065;-67
2022/06/19 01:30:33;;;;;;;;;;;;;;;;;;5094822;28;20263;-66
2022/06/19 01:32:59;;;;;;;;;;;;;;;;;;5093924;28;19946;-66
2022/06/19 01:35:25;;;;;;;;;;;;;;;;;;5094017;28;20282;-66
2022/06/19 01:37:50;;;;;;;;;;;;;;;;;;5094753;28;19943;-66
2022/06/19 01:40:16;;;;;;;;;;;;;;;;;;5095169;28;20031;-66
2022/06/19 01:42:42;;;;;;;;;;;;;;;;;;5094931;28;19924;-66
2022/06/19 01:45:08;;;;;;;;;;;;;;;;;;5094624;28;19920;-66
2022/06/19 01:47:34;;;;;;;;;;;;;;;;;;5093737;28;19924;-66
2022/06/19 01:50:00;;;;;;;;;;;;;;;;;;5094865;28;19920;-66
2022/06/19 01:52:26;;;;;;;;;;;;;;;;;;5093208;28;20003;-66
2022/06/19 01:54:52;;;;;;;;;;;;;;;;;;5094927;28;19935;-66
2022/06/19 01:57:18;;;;;;;;;;;;;;;;;;5093542;28;19924;-66
2022/06/19 01:59:44;;;;;;;;;;;;;;;;;;5093977;28;19926;-66
2022/06/19 02:02:10;;;;;;;;;;;;;;;;;;5093396;28;20007;-67
2022/06/19 02:04:36;;;;;;;;;;;;;;;;;;5094764;28;19973;-67
2022/06/19 02:07:02;;;;;;;;;;;;;;;;;;5092088;28;20029;-67
2022/06/19 02:09:28;;;;;;;;;;;;;;;;;;5094849;28;20007;-67
2022/06/19 02:11:54;;;;;;;;;;;;;;;;;;5093086;28;20049;-67
2022/06/19 02:14:19;;;;;;;;;;;;;;;;;;5092550;28;20356;-67
2022/06/19 02:16:45;;;;;;;;;;;;;;;;;;5093125;28;20345;-67
2022/06/19 02:19:11;;;;;;;;;;;;;;;;;;5093169;28;19967;-66
2022/06/19 02:21:37;;;;;;;;;;;;;;;;;;5075451;28;19924;-67
2022/06/19 02:24:03;;;;;;;;;;;;;;;;;;5094489;28;19924;-67
2022/06/19 02:26:29;;;;;;;;;;;;;;;;;;5081067;28;19920;-67
2022/06/19 02:28:55;;;;;;;;;;;;;;;;;;5073606;28;19924;-67
2022/06/19 02:31:21;;;;;;;;;;;;;;;;;;5074131;28;19993;-67
2022/06/19 02:33:47;;;;;;;;;;;;;;;;;;5073923;28;19921;-67
2022/06/19 02:36:13;;;;;;;;;;;;;;;;;;5073452;28;20268;-67
2022/06/19 02:38:39;;;;;;;;;;;;;;;;;;5072537;28;19928;-67
2022/06/19 02:41:05;;;;;;;;;;;;;;;;;;5072807;28;19963;-67
2022/06/19 02:43:32;;;;;;;;;;;;;;;;;;5071965;28;19928;-67
2022/06/19 02:45:58;;;;;;;;;;;;;;;;;;5072297;28;19927;-67
2022/06/19 02:48:24;;;;;;;;;;;;;;;;;;5073826;28;19924;-67
2022/06/19 02:50:50;;;;;;;;;;;;;;;;;;5072202;28;19943;-67
2022/06/19 02:53:16;;;;;;;;;;;;;;;;;;5073190;28;19932;-67
2022/06/19 02:55:42;;;;;;;;;;;;;;;;;;5072338;28;20011;-66
2022/06/19 02:58:08;;;;;;;;;;;;;;;;;;5073606;28;20015;-67
2022/06/19 03:00:34;;;;;;;;;;;;;;;;;;5072920;28;19943;-67
2022/06/19 03:03:00;;;;;;;;;;;;;;;;;;5071994;28;19924;-67
2022/06/19 03:05:26;;;;;;;;;;;;;;;;;;5072077;28;19951;-66
2022/06/19 03:07:52;;;;;;;;;;;;;;;;;;5071365;28;19931;-67
2022/06/19 03:10:18;;;;;;;;;;;;;;;;;;5071750;28;19920;-67
2022/06/19 03:12:44;;;;;;;;;;;;;;;;;;5071823;28;19920;-67
2022/06/19 03:15:10;;;;;;;;;;;;;;;;;;5071088;28;19920;-67
2022/06/19 03:17:36;;;;;;;;;;;;;;;;;;5070798;28;19929;-67
2022/06/19 03:20:02;;;;;;;;;;;;;;;;;;5071629;28;20256;-67
2022/06/19 03:22:28;;;;;;;;;;;;;;;;;;5072586;28;19935;-66
2022/06/19 03:24:54;;;;;;;;;;;;;;;;;;5071515;28;19986;-66
2022/06/19 03:27:20;;;;;;;;;;;;;;;;;;5091894;28;19930;-67
2022/06/19 03:29:46;;;;;;;;;;;;;;;;;;5092571;28;20319;-67
2022/06/19 03:32:12;;;;;;;;;;;;;;;;;;5093224;28;19920;-67
2022/06/19 03:34:38;;;;;;;;;;;;;;;;;;5091685;28;19920;-67
2022/06/19 03:37:04;;;;;;;;;;;;;;;;;;5092145;28;20453;-66
2022/06/19 03:39:30;;;;;;;;;;;;;;;;;;5092747;28;19924;-66
2022/06/19 03:41:57;;;;;;;;;;;;;;;;;;5091301;28;19924;-66
2022/06/19 03:44:23;;;;;;;;;;;;;;;;;;5091892;28;20282;-66
2022/06/19 03:46:49;;;;;;;;;;;;;;;;;;5092861;28;19965;-66
2022/06/19 03:49:15;;;;;;;;;;;;;;;;;;5091292;28;19975;-66
2022/06/19 03:51:41;;;;;;;;;;;;;;;;;;5092186;28;19920;-67
2022/06/19 03:54:08;;;;;;;;;;;;;;;;;;5091221;28;19920;-67
2022/06/19 03:56:34;;;;;;;;;;;;;;;;;;5091497;28;20402;-67
2022/06/19 03:58:59;;;;;;;;;;;;;;;;;;5092093;28;19920;-67
2022/06/19 04:01:25;;;;;;;;;;;;;;;;;;5092592;28;20044;-67
2022/06/19 04:03:51;;;;;;;;;;;;;;;;;;5092630;28;19930;-67
2022/06/19 04:06:17;;;;;;;;;;;;;;;;;;5090440;28;19924;-67
2022/06/19 04:08:46;;;;;;;;;;;;;;;;;;5090898;28;19928;-67
2022/06/19 04:11:12;;;;;;;;;;;;;;;;;;5090940;28;20334;-67
2022/06/19 04:13:37;;;;;;;;;;;;;;;;;;5091641;28;19927;-66
2022/06/19 04:16:03;;;;;;;;;;;;;;;;;;5092420;28;19920;-66
2022/06/19 04:18:29;;;;;;;;;;;;;;;;;;5090946;28;20050;-66
2022/06/19 04:20:56;;;;;;;;;;;;;;;;;;5090156;28;19968;-66
2022/06/19 04:23:22;;;;;;;;;;;;;;;;;;5090813;28;19963;-66
2022/06/19 04:25:48;;;;;;;;;;;;;;;;;;5084592;28;19920;-66
2022/06/19 04:28:14;;;;;;;;;;;;;;;;;;5071156;28;20425;-66
2022/06/19 04:30:46;;;;;;;;;;;;;;;;;;5071575;28;19924;-67
2022/06/19 04:33:12;;;;;;;;;;;;;;;;;;5070588;28;19932;-67
2022/06/19 04:35:38;;;;;;;;;;;;;;;;;;5052994;28;19920;-66
2022/06/19 04:38:04;;;;;;;;;;;;;;;;;;5071751;28;20026;-66
2022/06/19 04:40:30;;;;;;;;;;;;;;;;;;5071956;28;20002;-66
2022/06/19 04:42:56;;;;;;;;;;;;;;;;;;5069445;28;20007;-66
2022/06/19 04:45:22;;;;;;;;;;;;;;;;;;5071715;28;20252;-66
2022/06/19 04:47:47;;;;;;;;;;;;;;;;;;5070397;28;19939;-66
2022/06/19 04:50:14;;;;;;;;;;;;;;;;;;5069787;28;20037;-66
2022/06/19 04:52:40;;;;;;;;;;;;;;;;;;5070528;28;19970;-66
2022/06/19 04:55:06;;;;;;;;;;;;;;;;;;5072001;28;20349;-66
2022/06/19 04:57:32;;;;;;;;;;;;;;;;;;5071281;28;20022;-66
2022/06/19 04:59:58;;;;;;;;;;;;;;;;;;5071908;28;19920;-66
2022/06/19 05:02:24;;;;;;;;;;;;;;;;;;5071775;28;20015;-66
2022/06/19 05:04:50;;;;;;;;;;;;;;;;;;5070814;28;19956;-66
2022/06/19 05:07:16;;;;;;;;;;;;;;;;;;5071404;28;19968;-66
2022/06/19 05:09:42;;;;;;;;;;;;;;;;;;5070091;28;20015;-66
2022/06/19 05:12:08;;;;;;;;;;;;;;;;;;5071000;28;20347;-66
2022/06/19 05:14:33;;;;;;;;;;;;;;;;;;5071548;28;19920;-66
2022/06/19 05:17:01;;;;;;;;;;;;;;;;;;5071707;28;20035;-66
2022/06/19 05:19:27;;;;;;;;;;;;;;;;;;5069373;28;19982;-66
2022/06/19 05:21:53;;;;;;;;;;;;;;;;;;5070040;28;19924;-66
2022/06/19 05:24:19;;;;;;;;;;;;;;;;;;5070034;28;19920;-66
2022/06/19 05:26:45;;;;;;;;;;;;;;;;;;5083246;28;19928;-66
2022/06/19 05:29:11;;;;;;;;;;;;;;;;;;5090129;28;19931;-66
2022/06/19 05:31:37;;;;;;;;;;;;;;;;;;5090006;28;19924;-66
2022/06/19 05:34:02;;;;;;;;;;;;;;;;;;5089353;28;20011;-66
2022/06/19 05:36:29;;;;;;;;;;;;;;;;;;5090147;28;20274;-66
2022/06/19 05:38:55;;;;;;;;;;;;;;;;;;5090143;28;19923;-66
2022/06/19 05:41:21;;;;;;;;;;;;;;;;;;5074185;28;20324;-66
2022/06/19 05:43:47;;;;;;;;;;;;;;;;;;5093526;28;20011;-66
2022/06/19 05:46:14;;;;;;;;;;;;;;;;;;5095236;28;20007;-66
2022/06/19 05:48:40;;;;;;;;;;;;;;;;;;5094653;28;19938;-66
2022/06/19 05:51:06;;;;;;;;;;;;;;;;;;5095114;28;19920;-66
2022/06/19 05:53:32;;;;;;;;;;;;;;;;;;5095048;28;19978;-66
2022/06/19 05:55:57;;;;;;;;;;;;;;;;;;5094770;28;20438;-66
2022/06/19 05:58:23;;;;;;;;;;;;;;;;;;5093337;28;19989;-66
2022/06/19 06:00:49;;;;;;;;;;;;;;;;;;5094973;28;19964;-66
2022/06/19 06:03:16;;;;;;;;;;;;;;;;;;5094516;28;19946;-66
2022/06/19 06:05:42;;;;;;;;;;;;;;;;;;5075945;28;19920;-66
2022/06/19 06:08:08;;;;;;;;;;;;;;;;;;5093265;28;20010;-66
2022/06/19 06:10:34;;;;;;;;;;;;;;;;;;5094678;28;19970;-66
2022/06/19 06:13:00;;;;;;;;;;;;;;;;;;5094100;28;19927;-66
2022/06/19 06:15:26;;;;;;;;;;;;;;;;;;5094733;28;20313;-66
2022/06/19 06:17:52;;;;;;;;;;;;;;;;;;5093107;28;19924;-66
2022/06/19 06:20:18;;;;;;;;;;;;;;;;;;5093830;28;19990;-66
2022/06/19 06:22:44;;;;;;;;;;;;;;;;;;5092984;28;19970;-66
2022/06/19 06:25:10;;;;;;;;;;;;;;;;;;5093680;28;19927;-66
2022/06/19 06:27:37;;;;;;;;;;;;;;;;;;5055452;28;19935;-66
2022/06/19 06:30:02;;;;;;;;;;;;;;;;;;5074245;28;19952;-66
2022/06/19 06:32:28;;;;;;;;;;;;;;;;;;5074263;28;20362;-66
2022/06/19 06:34:54;;;;;;;;;;;;;;;;;;5072020;28;19944;-66
2022/06/19 06:37:20;;;;;;;;;;;;;;;;;;5072622;28;19924;-66
2022/06/19 06:39:46;;;;;;;;;;;;;;;;;;5072415;28;19932;-66
2022/06/19 06:42:12;;;;;;;;;;;;;;;;;;5072872;28;19921;-66
2022/06/19 06:44:38;;;;;;;;;;;;;;;;;;5072420;28;20429;-66
2022/06/19 06:47:04;;;;;;;;;;;;;;;;;;5073938;28;19962;-66
2022/06/19 06:49:30;;;;;;;;;;;;;;;;;;5073122;28;19924;-66
2022/06/19 06:51:56;;;;;;;;;;;;;;;;;;5073688;28;19925;-66
2022/06/19 06:54:22;;;;;;;;;;;;;;;;;;5073720;28;19920;-66
2022/06/19 06:56:48;;;;;;;;;;;;;;;;;;5073171;28;20396;-66
2022/06/19 06:59:14;;;;;;;;;;;;;;;;;;5072428;28;19920;-66
2022/06/19 07:01:40;;;;;;;;;;;;;;;;;;5072399;28;19920;-66
2022/06/19 07:04:06;;;;;;;;;;;;;;;;;;5072582;28;19994;-66
2022/06/19 07:06:32;;;;;;;;;;;;;;;;;;5072056;28;19999;-66
2022/06/19 07:08:58;;;;;;;;;;;;;;;;;;5071904;28;20011;-66
2022/06/19 07:11:24;;;;;;;;;;;;;;;;;;5071190;28;19920;-66
2022/06/19 07:13:50;;;;;;;;;;;;;;;;;;5073438;28;20413;-66
2022/06/19 07:16:16;;;;;;;;;;;;;;;;;;5071836;28;19960;-66
2022/06/19 07:18:42;;;;;;;;;;;;;;;;;;5072392;28;19970;-66
2022/06/19 07:21:08;;;;;;;;;;;;;;;;;;5071848;28;19921;-66
2022/06/19 07:23:34;;;;;;;;;;;;;;;;;;5072173;28;19921;-66
2022/06/19 07:26:00;;;;;;;;;;;;;;;;;;5078917;28;20512;-66
2022/06/19 07:28:27;;;;;;;;;;;;;;;;;;5091699;28;19927;-66
2022/06/19 07:30:53;;;;;;;;;;;;;;;;;;5091633;28;20015;-66
2022/06/19 07:33:19;;;;;;;;;;;;;;;;;;5092522;28;20027;-66
2022/06/19 07:35:46;;;;;;;;;;;;;;;;;;5093116;28;20313;-66
2022/06/19 07:38:12;;;;;;;;;;;;;;;;;;5092825;28;19924;-66
2022/06/19 07:40:37;;;;;;;;;;;;;;;;;;5090863;28;20033;-66
2022/06/19 07:43:03;;;;;;;;;;;;;;;;;;5092769;28;19928;-66
2022/06/19 07:45:30;;;;;;;;;;;;;;;;;;5091413;28;19921;-67
2022/06/19 07:50:42;;;;;;;;;;;;;;;;;;5092237;28;20160;-66
2022/06/19 07:53:08;;;;;;;;;;;;;;;;;;5092967;28;19920;-66
2022/06/19 07:55:35;;;;;;;;;;;;;;;;;;5090780;28;19942;-66
2022/06/19 07:58:01;;;;;;;;;;;;;;;;;;5092922;28;20042;-66
2022/06/19 08:00:27;;;;;;;;;;;;;;;;;;5091371;28;20434;-66
2022/06/19 08:02:53;;;;;;;;;;;;;;;;;;5092227;28;20390;-66
2022/06/19 08:05:19;;;;;;;;;;;;;;;;;;5090950;28;20277;-66
2022/06/19 08:07:44;;;;;;;;;;;;;;;;;;5091329;28;19974;-66
2022/06/19 08:10:11;;;;;;;;;;;;;;;;;;5090442;28;20298;-66
2022/06/19 08:12:37;;;;;;;;;;;;;;;;;;5092701;28;20260;-66
2022/06/19 08:15:03;;;;;;;;;;;;;;;;;;5092616;28;19943;-66
2022/06/19 08:17:29;;;;;;;;;;;;;;;;;;5090483;28;19928;-66
2022/06/19 08:19:55;;;;;;;;;;;;;;;;;;5092119;28;20018;-66
2022/06/19 08:22:21;;;;;;;;;;;;;;;;;;5092521;28;19927;-66
2022/06/19 08:24:47;;;;;;;;;;;;;;;;;;5091793;28;20309;-66
2022/06/19 08:27:13;;;;;;;;;;;;;;;;;;5072806;28;20484;-66
2022/06/19 08:29:39;;;;;;;;;;;;;;;;;;5071836;28;20466;-66
2022/06/19 08:32:05;;;;;;;;;;;;;;;;;;5070024;28;19943;-66
2022/06/19 08:34:30;;;;;;;;;;;;;;;;;;5070501;28;20389;-66
2022/06/19 08:36:56;;;;;;;;;;;;;;;;;;5070544;28;19950;-66
2022/06/19 08:39:22;;;;;;;;;;;;;;;;;;5068283;28;19924;-66
2022/06/19 08:41:48;;;;;;;;;;;;;;;;;;5070327;28;20236;-66
2022/06/19 08:44:14;;;;;;;;;;;;;;;;;;5070300;28;20417;-66
2022/06/19 08:46:40;;;;;;;;;;;;;;;;;;5069981;28;19920;-66
2022/06/19 08:49:06;;;;;;;;;;;;;;;;;;5069078;28;20251;-66
2022/06/19 08:51:32;;;;;;;;;;;;;;;;;;5069081;28;19920;-66
2022/06/19 08:53:58;;;;;;;;;;;;;;;;;;5068605;28;20023;-66
2022/06/19 08:56:24;;;;;;;;;;;;;;;;;;5070564;28;19921;-66
2022/06/19 08:58:50;;;;;;;;;;;;;;;;;;5070729;28;20276;-66
2022/06/19 09:01:16;;;;;;;;;;;;;;;;;;5069776;28;20716;-66
2022/06/19 09:06:26;;;;;;;;;;;;;;;;;;5068989;28;19924;-66
2022/06/19 09:08:52;;;;;;;;;;;;;;;;;;5069952;28;19931;-66
2022/06/19 09:11:18;;;;;;;;;;;;;;;;;;5070635;28;20007;-66
2022/06/19 09:13:44;;;;;;;;;;;;;;;;;;5070503;28;20329;-66
2022/06/19 09:16:10;;;;;;;;;;;;;;;;;;5052729;28;19974;-66
2022/06/19 09:18:36;;;;;;;;;;;;;;;;;;5072616;28;19921;-66
2022/06/19 09:21:02;;;;;;;;;;;;;;;;;;5074136;28;19924;-66
2022/06/19 09:23:28;;;;;;;;;;;;;;;;;;5073164;28;20457;-66
2022/06/19 09:25:53;;;;;;;;;;;;;;;;;;5079411;28;19937;-66
2022/06/19 09:28:19;;;;;;;;;;;;;;;;;;5092898;28;19924;-66
2022/06/19 09:30:45;;;;;;;;;;;;;;;;;;5091907;28;19931;-66
2022/06/19 09:33:11;;;;;;;;;;;;;;;;;;5094023;28;19962;-66
2022/06/19 09:35:37;;;;;;;;;;;;;;;;;;5093933;28;20433;-66
2022/06/19 09:38:03;;;;;;;;;;;;;;;;;;5092124;28;19920;-66
2022/06/19 09:40:29;;;;;;;;;;;;;;;;;;5092557;28;19920;-66
2022/06/19 09:42:55;;;;;;;;;;;;;;;;;;5092700;28;20496;-66
2022/06/19 09:45:21;;;;;;;;;;;;;;;;;;5092276;28;20323;-66
2022/06/19 09:47:47;;;;;;;;;;;;;;;;;;5093690;28;19993;-66
2022/06/19 09:50:13;;;;;;;;;;;;;;;;;;5092457;28;19927;-66
2022/06/19 09:52:38;;;;;;;;;;;;;;;;;;5092544;28;20405;-66
2022/06/19 09:55:04;;;;;;;;;;;;;;;;;;5091815;28;19973;-66
2022/06/19 09:57:30;;;;;;;;;;;;;;;;;;5093950;28;20425;-66
2022/06/19 09:59:56;;;;;;;;;;;;;;;;;;5092642;28;20337;-66
2022/06/19 10:02:22;;;;;;;;;;;;;;;;;;5091972;28;19927;-66
2022/06/19 10:04:48;;;;;;;;;;;;;;;;;;5092602;28;19920;-66
2022/06/19 10:07:14;;;;;;;;;;;;;;;;;;5093763;28;19920;-67
2022/06/19 10:09:40;;;;;;;;;;;;;;;;;;5091791;28;20363;-67
2022/06/19 10:12:07;;;;;;;;;;;;;;;;;;5093580;28;19965;-67
2022/06/19 10:14:33;;;;;;;;;;;;;;;;;;5094012;28;19920;-67
2022/06/19 10:16:59;;;;;;;;;;;;;;;;;;5091859;28;19920;-67
2022/06/19 10:19:24;;;;;;;;;;;;;;;;;;5093459;28;19920;-67
2022/06/19 10:24:35;;;;;;;;;;;;;;;;;;5092671;28;19920;-66
2022/06/19 10:27:01;;;;;;;;;;;;;;;;;;5075187;28;19927;-66
2022/06/19 10:29:27;;;;;;;;;;;;;;;;;;5071503;28;19959;-66
2022/06/19 10:31:53;;;;;;;;;;;;;;;;;;5070876;28;19921;-66
2022/06/19 10:34:18;;;;;;;;;;;;;;;;;;5073022;28;19927;-66
2022/06/19 10:36:44;;;;;;;;;;;;;;;;;;5072666;28;19921;-66
2022/06/19 10:39:10;;;;;;;;;;;;;;;;;;5072195;28;19920;-67
2022/06/19 10:44:21;;;;;;;;;;;;;;;;;;5072215;28;20287;-67
2022/06/19 10:46:47;;;;;;;;;;;;;;;;;;5070578;28;19924;-67
2022/06/19 10:49:14;;;;;;;;;;;;;;;;;;5070949;28;20401;-67
2022/06/19 10:51:40;;;;;;;;;;;;;;;;;;5071024;28;19928;-67
2022/06/19 10:54:06;;;;;;;;;;;;;;;;;;5071773;28;19920;-67
2022/06/19 10:56:32;;;;;;;;;;;;;;;;;;5071057;28;19924;-67
2022/06/19 10:58:57;;;;;;;;;;;;;;;;;;5072488;28;19920;-67
2022/06/19 11:04:08;;;;;;;;;;;;;;;;;;5072340;28;19921;-67
2022/06/19 11:06:34;;;;;;;;;;;;;;;;;;5070838;28;19920;-67
2022/06/19 11:09:00;;;;;;;;;;;;;;;;;;5070055;28;19924;-67
2022/06/19 11:11:26;;;;;;;;;;;;;;;;;;5072299;28;19920;-67
2022/06/19 11:13:52;;;;;;;;;;;;;;;;;;5070492;28;20018;-67
2022/06/19 11:16:18;;;;;;;;;;;;;;;;;;5069940;28;19933;-67
2022/06/19 11:18:43;;;;;;;;;;;;;;;;;;5071952;28;19924;-67
2022/06/19 11:21:09;;;;;;;;;;;;;;;;;;5070504;28;20220;-67
2022/06/19 11:23:35;;;;;;;;;;;;;;;;;;5071227;28;19920;-67
2022/06/19 11:26:01;;;;;;;;;;;;;;;;;;5078055;28;19920;-67
2022/06/19 11:28:27;;;;;;;;;;;;;;;;;;5091851;28;20557;-67
2022/06/19 11:30:53;;;;;;;;;;;;;;;;;;5091232;28;19920;-67
2022/06/19 11:33:19;;;;;;;;;;;;;;;;;;5091671;28;19920;-67
2022/06/19 11:35:45;;;;;;;;;;;;;;;;;;5090437;28;19924;-67
2022/06/19 11:38:11;;;;;;;;;;;;;;;;;;5090663;28;19924;-67
2022/06/19 11:40:37;;;;;;;;;;;;;;;;;;5091493;28;19939;-67
2022/06/19 11:43:04;;;;;;;;;;;;;;;;;;5089872;28;19927;-67
2022/06/19 11:45:31;;;;;;;;;;;;;;;;;;5091086;28;20412;-67
2022/06/19 11:47:56;;;;;;;;;;;;;;;;;;5091706;28;20327;-67
2022/06/19 11:50:22;;;;;;;;;;;;;;;;;;5091666;28;20008;-67
2022/06/19 11:52:48;;;;;;;;;;;;;;;;;;5090967;28;19920;-67
2022/06/19 11:55:14;;;;;;;;;;;;;;;;;;5091615;28;19920;-67
2022/06/19 11:57:40;;;;;;;;;;;;;;;;;;5091518;28;19920;-68
2022/06/19 12:00:06;;;;;;;;;;;;;;;;;;5090558;28;20336;-67
2022/06/19 12:02:32;;;;;;;;;;;;;;;;;;5091338;28;19931;-67
2022/06/19 12:04:58;;;;;;;;;;;;;;;;;;5091326;28;19946;-67
2022/06/19 12:07:24;;;;;;;;;;;;;;;;;;5090433;28;20313;-67
2022/06/19 12:09:50;;;;;;;;;;;;;;;;;;5091417;28;19948;-67
2022/06/19 12:12:16;;;;;;;;;;;;;;;;;;5089644;28;19920;-67
2022/06/19 12:14:41;;;;;;;;;;;;;;;;;;5090392;28;20202;-67
2022/06/19 12:17:07;;;;;;;;;;;;;;;;;;5091287;28;20006;-67
2022/06/19 12:19:33;;;;;;;;;;;;;;;;;;5091154;28;19920;-67
2022/06/19 12:22:00;;;;;;;;;;;;;;;;;;5090415;28;19920;-67
2022/06/19 12:24:26;;;;;;;;;;;;;;;;;;5089492;28;19927;-67
2022/06/19 12:26:52;;;;;;;;;;;;;;;;;;5074370;28;19963;-67
2022/06/19 12:29:19;;;;;;;;;;;;;;;;;;5069916;28;19982;-67
2022/06/19 12:31:45;;;;;;;;;;;;;;;;;;5070512;28;19956;-67
2022/06/19 12:34:10;;;;;;;;;;;;;;;;;;5069265;28;19987;-67
2022/06/19 12:36:36;;;;;;;;;;;;;;;;;;5068579;28;20024;-67
2022/06/19 12:39:02;;;;;;;;;;;;;;;;;;5070681;28;20413;-67
2022/06/19 12:41:28;;;;;;;;;;;;;;;;;;5070656;28;19927;-67
2022/06/19 12:43:54;;;;;;;;;;;;;;;;;;5069526;28;20321;-67
2022/06/19 12:46:20;;;;;;;;;;;;;;;;;;5069539;28;19998;-67
2022/06/19 12:48:46;;;;;;;;;;;;;;;;;;5069046;28;20418;-67
2022/06/19 12:51:12;;;;;;;;;;;;;;;;;;5074188;28;19927;-67
2022/06/19 12:53:38;;;;;;;;;;;;;;;;;;5075763;28;19920;-67
2022/06/19 12:56:04;;;;;;;;;;;;;;;;;;5077148;28;19924;-67
2022/06/19 12:58:30;;;;;;;;;;;;;;;;;;5076575;28;19974;-67
2022/06/19 13:00:56;;;;;;;;;;;;;;;;;;5077250;28;19921;-67
2022/06/19 13:03:22;;;;;;;;;;;;;;;;;;5076981;28;19920;-67
2022/06/19 13:05:48;;;;;;;;;;;;;;;;;;5076362;28;20011;-67
2022/06/19 13:08:14;;;;;;;;;;;;;;;;;;5075378;28;20378;-67
2022/06/19 13:10:40;;;;;;;;;;;;;;;;;;5077005;28;19921;-67
2022/06/19 13:13:06;;;;;;;;;;;;;;;;;;5076419;28;20286;-67
2022/06/19 13:15:32;;;;;;;;;;;;;;;;;;5076804;28;20298;-67
2022/06/19 13:17:58;;;;;;;;;;;;;;;;;;5075829;28;19920;-67
2022/06/19 13:20:24;;;;;;;;;;;;;;;;;;5076216;28;20664;-67
2022/06/19 13:22:49;;;;;;;;;;;;;;;;;;5075386;28;19924;-67
2022/06/19 13:25:15;;;;;;;;;;;;;;;;;;5078149;28;19931;-67
2022/06/19 13:27:41;;;;;;;;;;;;;;;;;;5096640;28;19923;-67
2022/06/19 13:30:09;;;;;;;;;;;;;;;;;;5078905;28;20334;-67
2022/06/19 13:32:35;;;;;;;;;;;;;;;;;;5097268;28;19920;-67
2022/06/19 13:35:01;;;;;;;;;;;;;;;;;;5096607;28;19970;-67
2022/06/19 13:37:27;;;;;;;;;;;;;;;;;;5095616;28;19967;-67
2022/06/19 13:39:53;;;;;;;;;;;;;;;;;;5095306;28;19920;-67
2022/06/19 13:42:19;;;;;;;;;;;;;;;;;;5094649;28;19927;-67
2022/06/19 13:44:44;;;;;;;;;;;;;;;;;;5095398;28;19942;-67
2022/06/19 13:47:10;;;;;;;;;;;;;;;;;;5096853;28;19974;-67
2022/06/19 13:49:36;;;;;;;;;;;;;;;;;;5096281;28;20345;-67
2022/06/19 13:52:02;;;;;;;;;;;;;;;;;;5096547;28;19927;-67
2022/06/19 13:54:28;;;;;;;;;;;;;;;;;;5095843;28;19943;-67
2022/06/19 13:56:55;;;;;;;;;;;;;;;;;;5096968;28;19955;-67
2022/06/19 13:59:21;;;;;;;;;;;;;;;;;;5094926;28;20471;-67
2022/06/19 14:01:47;;;;;;;;;;;;;;;;;;5093762;28;19982;-67
2022/06/19 14:06:58;;;;;;;;;;;;;;;;;;5092134;28;19924;-67
2022/06/19 14:09:24;;;;;;;;;;;;;;;;;;5093826;28;20412;-67
2022/06/19 14:12:05;;;;;;;;;;;;;;;;;;5091935;28;19920;-67
2022/06/19 14:14:31;;;;;;;;;;;;;;;;;;5075123;28;19920;-67
2022/06/19 14:16:57;;;;;;;;;;;;;;;;;;5092247;28;19924;-67
2022/06/19 14:19:23;;;;;;;;;;;;;;;;;;5091093;28;20005;-67
2022/06/19 14:21:49;;;;;;;;;;;;;;;;;;5092982;28;20178;-67
2022/06/19 14:24:15;;;;;;;;;;;;;;;;;;5093213;28;19978;-67
2022/06/19 14:26:41;;;;;;;;;;;;;;;;;;5079153;28;19921;-67
2022/06/19 14:29:06;;;;;;;;;;;;;;;;;;5071105;28;19932;-67
2022/06/19 14:31:32;;;;;;;;;;;;;;;;;;5071567;28;20565;-67
2022/06/19 14:33:58;;;;;;;;;;;;;;;;;;5071462;28;20391;-67
2022/06/19 14:36:24;;;;;;;;;;;;;;;;;;5071271;28;19927;-67
2022/06/19 14:38:50;;;;;;;;;;;;;;;;;;5072688;28;20030;-67
2022/06/19 14:41:16;;;;;;;;;;;;;;;;;;5071169;28;19927;-67
2022/06/19 14:43:42;;;;;;;;;;;;;;;;;;5072027;28;19929;-67
2022/06/19 14:46:08;;;;;;;;;;;;;;;;;;5071103;28;19920;-68
2022/06/19 14:48:34;;;;;;;;;;;;;;;;;;5071006;28;19979;-68
2022/06/19 14:51:00;;;;;;;;;;;;;;;;;;5071580;28;20325;-68
2022/06/19 14:53:26;;;;;;;;;;;;;;;;;;5072603;28;19920;-68
2022/06/19 14:55:52;;;;;;;;;;;;;;;;;;5070875;28;19974;-68
2022/06/19 14:58:18;;;;;;;;;;;;;;;;;;5071794;28;19924;-68
2022/06/19 15:00:44;;;;;;;;;;;;;;;;;;5070871;28;19966;-68
2022/06/19 15:03:10;;;;;;;;;;;;;;;;;;5072522;28;19983;-68
2022/06/19 15:05:36;;;;;;;;;;;;;;;;;;5070042;28;20394;-68
2022/06/19 15:08:02;;;;;;;;;;;;;;;;;;5070545;28;19986;-68
2022/06/19 15:10:28;;;;;;;;;;;;;;;;;;5072048;28;19921;-68
2022/06/19 15:12:53;;;;;;;;;;;;;;;;;;5071067;28;19920;-68
2022/06/19 15:15:19;;;;;;;;;;;;;;;;;;5070077;28;20294;-68
2022/06/19 15:17:45;;;;;;;;;;;;;;;;;;5054033;28;20065;-68
2022/06/19 15:20:11;;;;;;;;;;;;;;;;;;5070992;28;19989;-68
2022/06/19 15:22:39;;;;;;;;;;;;;;;;;;5070416;28;19931;-68
2022/06/19 15:25:07;;;;;;;;;;;;;;;;;;5071442;28;19927;-68
2022/06/19 15:27:33;;;;;;;;;;;;;;;;;;5089819;28;19920;-68
2022/06/19 15:29:59;;;;;;;;;;;;;;;;;;5092009;28;19920;-67
2022/06/19 15:32:25;;;;;;;;;;;;;;;;;;5090380;28;19973;-67
2022/06/19 15:34:51;;;;;;;;;;;;;;;;;;5091076;28;20357;-67
2022/06/19 15:37:17;;;;;;;;;;;;;;;;;;5090363;28;19924;-67
2022/06/19 15:39:43;;;;;;;;;;;;;;;;;;5091744;28;19920;-67
2022/06/19 15:42:09;;;;;;;;;;;;;;;;;;5090596;28;20312;-67
2022/06/19 15:44:34;;;;;;;;;;;;;;;;;;5091569;28;19969;-67
2022/06/19 15:47:00;;;;;;;;;;;;;;;;;;5091780;28;19969;-67
2022/06/19 15:49:26;;;;;;;;;;;;;;;;;;5089631;28;20052;-67
2022/06/19 15:51:52;;;;;;;;;;;;;;;;;;5089928;28;19931;-67
2022/06/19 15:54:20;;;;;;;;;;;;;;;;;;5090246;28;20409;-67
2022/06/19 15:56:46;;;;;;;;;;;;;;;;;;5089331;28;19931;-67
2022/06/19 15:59:12;;;;;;;;;;;;;;;;;;5089943;28;19924;-67
2022/06/19 16:01:37;;;;;;;;;;;;;;;;;;5089857;28;20397;-67
2022/06/19 16:04:03;;;;;;;;;;;;;;;;;;5089434;28;20354;-67
2022/06/19 16:06:29;;;;;;;;;;;;;;;;;;5090411;28;19920;-67
2022/06/19 16:08:55;;;;;;;;;;;;;;;;;;5091316;28;19944;-67
2022/06/19 16:11:21;;;;;;;;;;;;;;;;;;5090591;28;20274;-67
2022/06/19 16:13:47;;;;;;;;;;;;;;;;;;5089701;28;19924;-67
2022/06/19 16:16:13;;;;;;;;;;;;;;;;;;5089673;28;19924;-67
2022/06/19 16:18:39;;;;;;;;;;;;;;;;;;5089330;28;19920;-67
2022/06/19 16:21:05;;;;;;;;;;;;;;;;;;5089814;28;19949;-67
2022/06/19 16:23:31;;;;;;;;;;;;;;;;;;5090845;28;20039;-67
2022/06/19 16:25:57;;;;;;;;;;;;;;;;;;5081150;28;20170;-67
2022/06/19 16:28:22;;;;;;;;;;;;;;;;;;5069224;28;19928;-67
2022/06/19 16:30:48;;;;;;;;;;;;;;;;;;5069776;28;19989;-67
2022/06/19 16:33:14;;;;;;;;;;;;;;;;;;5069896;28;19920;-67
2022/06/19 16:44:04;;;;;;;;;;;;;;;;;;5070234;28;19928;-67
2022/06/19 16:46:30;;;;;;;;;;;;;;;;;;5070443;28;19921;-67
2022/06/19 16:48:56;;;;;;;;;;;;;;;;;;5069703;28;20415;-67
2022/06/19 16:51:22;;;;;;;;;;;;;;;;;;5070659;28;19921;-67
2022/06/19 16:53:48;;;;;;;;;;;;;;;;;;5069043;28;19924;-67
2022/06/19 16:56:13;;;;;;;;;;;;;;;;;;5068387;28;19946;-67
2022/06/19 16:58:39;;;;;;;;;;;;;;;;;;5070585;28;19921;-67
2022/06/19 17:01:06;;;;;;;;;;;;;;;;;;5068959;28;19952;-67
2022/06/19 17:03:31;;;;;;;;;;;;;;;;;;5068328;28;19932;-67